createdAt,value
2023-02-06T00:01:22.360Z,104285.28
2023-02-06T00:03:49.418Z,104292.47
2023-02-06T00:06:16.545Z,104287.88
2023-02-06T00:08:44.132Z,104295.06
2023-02-06T00:11:16.658Z,104293.09
2023-02-06T00:13:45.110Z,104291.22
2023-02-06T00:16:27.823Z,104286.34
2023-02-06T00:18:56.587Z,104298.75
2023-02-06T00:21:26.164Z,104286.00
2023-02-06T00:23:58.816Z,104291.25
2023-02-06T00:26:26.240Z,104293.56
2023-02-06T00:28:53.377Z,104292.50
2023-02-06T00:31:21.029Z,104284.97
2023-02-06T00:33:48.444Z,104295.09
2023-02-06T00:36:15.461Z,104293.56
2023-02-06T00:38:42.523Z,104292.78
2023-02-06T00:41:09.630Z,104293.09
2023-02-06T00:43:36.622Z,104296.91
2023-02-06T00:46:03.728Z,104296.47
2023-02-06T00:48:30.774Z,104294.44
2023-02-06T00:50:57.804Z,104294.09
2023-02-06T00:53:24.889Z,104295.03
2023-02-06T00:55:51.945Z,104298.25
2023-02-06T00:58:18.885Z,104292.63
2023-02-06T01:00:45.837Z,104293.09
2023-02-06T01:03:12.905Z,104295.84
2023-02-06T01:05:40.088Z,104290.91
2023-02-06T01:08:07.248Z,104295.06
2023-02-06T01:10:34.727Z,104294.91
2023-02-06T01:13:01.764Z,104293.09
2023-02-06T01:15:29.232Z,104297.69
2023-02-06T01:17:56.481Z,104298.44
2023-02-06T01:20:24.811Z,104304.56
2023-02-06T01:22:52.341Z,104315.00
2023-02-06T01:25:19.552Z,104317.00
2023-02-06T01:27:46.642Z,104319.91
2023-02-06T01:30:14.318Z,104318.81
2023-02-06T01:32:42.746Z,104315.19
2023-02-06T01:35:11.762Z,104306.28
2023-02-06T01:37:40.184Z,104308.91
2023-02-06T01:40:14.075Z,104310.59
2023-02-06T01:42:41.259Z,104318.56
2023-02-06T01:45:26.326Z,104315.81
2023-02-06T01:48:02.965Z,104309.03
2023-02-06T01:50:32.759Z,104306.75
2023-02-06T01:53:00.903Z,104312.72
2023-02-06T01:55:28.211Z,104304.47
2023-02-06T01:57:55.373Z,104300.16
2023-02-06T02:00:22.492Z,104300.31
2023-02-06T02:02:50.221Z,104303.69
2023-02-06T02:05:19.228Z,104294.34
2023-02-06T02:08:04.501Z,104298.03
2023-02-06T02:10:32.593Z,104293.72
2023-02-06T02:12:59.662Z,104284.06
2023-02-06T02:15:41.193Z,104279.63
2023-02-06T02:18:34.021Z,104288.66
2023-02-06T02:21:41.045Z,104277.50
2023-02-06T02:24:50.135Z,104281.31
2023-02-06T02:27:56.630Z,104274.69
2023-02-06T02:30:59.040Z,104284.50
2023-02-06T02:33:56.813Z,104277.94
2023-02-06T02:36:48.753Z,104277.03
2023-02-06T02:39:56.271Z,104279.78
2023-02-06T02:42:36.354Z,104267.38
2023-02-06T02:45:19.138Z,104255.56
2023-02-06T02:47:55.862Z,104250.97
2023-02-06T02:50:23.218Z,104249.75
2023-02-06T02:52:50.906Z,104249.13
2023-02-06T02:55:22.344Z,104254.97
2023-02-06T02:57:56.260Z,104259.25
2023-02-06T03:00:25.017Z,104259.25
2023-02-06T03:02:54.492Z,104250.38
2023-02-06T03:05:24.656Z,104255.41
2023-02-06T03:07:53.891Z,104262.31
2023-02-06T03:10:30.200Z,104264.00
2023-02-06T03:13:10.664Z,104262.44
2023-02-06T03:15:53.404Z,104257.72
2023-02-06T03:18:36.057Z,104250.97
2023-02-06T03:21:06.504Z,104257.00
2023-02-06T03:23:39.149Z,104253.47
2023-02-06T03:26:15.531Z,104246.72
2023-02-06T03:28:48.884Z,104250.53
2023-02-06T03:31:24.341Z,104249.94
2023-02-06T03:34:20.331Z,104250.13
2023-02-06T03:36:47.869Z,104247.53
2023-02-06T03:39:15.003Z,104248.00
2023-02-06T03:41:43.845Z,104247.84
2023-02-06T03:44:18.656Z,104250.28
2023-02-06T03:46:47.636Z,104251.22
2023-02-06T03:49:17.346Z,104251.84
2023-02-06T03:51:54.171Z,104250.31
2023-02-06T03:54:24.254Z,104246.47
2023-02-06T03:56:58.092Z,104259.31
2023-02-06T03:59:25.608Z,104246.44
2023-02-06T04:01:57.183Z,104245.84
2023-02-06T04:04:31.802Z,104238.03
2023-02-06T04:07:15.813Z,104236.81
2023-02-06T04:09:42.823Z,104239.13
2023-02-06T04:12:11.297Z,104251.25
2023-02-06T04:14:38.512Z,104252.63
2023-02-06T04:17:06.466Z,104249.44
2023-02-06T04:19:34.214Z,104251.53
2023-02-06T04:22:02.109Z,104255.53
2023-02-06T04:24:30.962Z,104261.53
2023-02-06T04:26:59.188Z,104261.69
2023-02-06T04:29:26.555Z,104258.31
2023-02-06T04:31:53.545Z,104272.09
2023-02-06T04:34:20.577Z,104259.84
2023-02-06T04:36:47.663Z,104268.41
2023-02-06T04:39:14.717Z,104267.00
2023-02-06T04:41:41.678Z,104260.75
2023-02-06T04:44:08.705Z,104266.72
2023-02-06T04:46:35.712Z,104263.34
2023-02-06T04:49:03.206Z,104260.44
2023-02-06T04:51:30.236Z,104259.06
2023-02-06T04:53:57.249Z,104261.50
2023-02-06T04:56:25.964Z,104265.63
2023-02-06T04:58:53.038Z,104263.47
2023-02-06T05:01:20.892Z,104260.72
2023-02-06T05:03:48.232Z,104253.88
2023-02-06T05:06:16.381Z,104244.22
2023-02-06T05:08:43.462Z,104233.50
2023-02-06T05:11:10.454Z,104236.88
2023-02-06T05:13:37.675Z,104245.13
2023-02-06T05:16:13.586Z,104248.47
2023-02-06T05:18:42.332Z,104251.38
2023-02-06T05:21:09.286Z,104251.38
2023-02-06T05:23:36.404Z,104246.22
2023-02-06T05:26:03.551Z,104244.38
2023-02-06T05:28:33.379Z,104256.47
2023-02-06T05:31:01.760Z,104254.63
2023-02-06T05:33:29.203Z,104256.72
2023-02-06T05:36:03.643Z,104267.13
2023-02-06T05:38:31.043Z,104272.34
2023-02-06T05:40:58.192Z,104270.84
2023-02-06T05:43:25.516Z,104267.91
2023-02-06T05:45:52.528Z,104272.47
2023-02-06T05:48:19.634Z,104277.97
2023-02-06T05:50:50.130Z,104267.28
2023-02-06T05:53:18.377Z,104267.28
2023-02-06T05:55:45.389Z,104268.34
2023-02-06T05:58:12.698Z,104282.72
2023-02-06T06:00:39.842Z,104271.94
2023-02-06T06:03:06.806Z,104262.94
2023-02-06T06:05:34.015Z,104268.88
2023-02-06T06:08:01.260Z,104258.41
2023-02-06T06:10:28.355Z,104257.81
2023-02-06T06:12:55.412Z,104265.59
2023-02-06T06:15:22.405Z,104269.88
2023-02-06T06:17:49.389Z,104270.00
2023-02-06T06:20:16.656Z,104271.50
2023-02-06T06:22:43.883Z,104276.38
2023-02-06T06:25:10.987Z,104278.53
2023-02-06T06:27:37.928Z,104276.41
2023-02-06T06:30:05.428Z,104274.09
2023-02-06T06:32:32.402Z,104272.88
2023-02-06T06:34:59.369Z,104274.63
2023-02-06T06:37:26.448Z,104286.97
2023-02-06T06:39:53.421Z,104293.38
2023-02-06T06:42:20.398Z,104285.72
2023-02-06T06:44:47.365Z,104281.16
2023-02-06T06:47:14.334Z,104297.59
2023-02-06T06:49:41.352Z,104277.94
2023-02-06T06:52:19.507Z,104242.22
2023-02-06T06:54:52.517Z,104227.94
2023-02-06T06:57:21.019Z,104219.84
2023-02-06T06:59:48.095Z,104214.88
2023-02-06T07:02:15.720Z,104217.44
2023-02-06T07:04:43.141Z,104229.25
2023-02-06T07:07:11.201Z,104221.63
2023-02-06T07:09:38.227Z,104223.19
2023-02-06T07:12:05.777Z,104232.09
2023-02-06T07:14:32.717Z,104221.25
2023-02-06T07:17:01.697Z,104227.03
2023-02-06T07:19:28.742Z,104235.59
2023-02-06T07:21:55.722Z,104225.66
2023-02-06T07:24:22.703Z,104217.38
2023-02-06T07:26:49.749Z,104214.56
2023-02-06T07:29:16.786Z,104214.97
2023-02-06T07:31:43.783Z,104217.88
2023-02-06T07:34:11.230Z,104206.75
2023-02-06T07:36:38.372Z,104209.81
2023-02-06T07:39:05.597Z,104208.38
2023-02-06T07:41:32.595Z,104203.50
2023-02-06T07:43:59.641Z,104200.25
2023-02-06T07:46:26.839Z,104205.91
2023-02-06T07:48:53.885Z,104186.72
2023-02-06T07:51:20.896Z,104194.72
2023-02-06T07:53:48.626Z,104201.16
2023-02-06T07:56:20.925Z,104197.06
2023-02-06T07:58:53.506Z,104190.28
2023-02-06T08:01:22.338Z,104191.28
2023-02-06T08:03:51.422Z,104195.72
2023-02-06T08:06:20.216Z,104195.72
2023-02-06T08:08:47.846Z,104198.56
2023-02-06T08:11:20.686Z,104188.09
2023-02-06T08:13:48.499Z,104183.03
2023-02-06T08:16:22.889Z,104171.66
2023-02-06T08:18:49.978Z,104165.66
2023-02-06T08:21:21.550Z,104169.22
2023-02-06T08:24:00.818Z,104164.84
2023-02-06T08:26:29.869Z,104166.00
2023-02-06T08:29:00.545Z,104164.16
2023-02-06T08:31:32.272Z,104164.47
2023-02-06T08:33:59.663Z,104152.19
2023-02-06T08:36:28.131Z,104154.81
2023-02-06T08:38:55.497Z,104152.28
2023-02-06T08:41:26.021Z,104150.47
2023-02-06T08:43:57.214Z,104154.09
2023-02-06T08:46:27.057Z,104142.72
2023-02-06T08:49:05.194Z,104142.00
2023-02-06T08:51:34.175Z,104142.09
2023-02-06T08:54:08.797Z,104132.44
2023-02-06T08:56:36.908Z,104128.19
2023-02-06T08:59:06.137Z,104126.53
2023-02-06T09:01:35.987Z,104131.91
2023-02-06T09:04:09.780Z,104135.38
2023-02-06T09:06:40.405Z,104131.91
2023-02-06T09:09:08.541Z,104132.00
2023-02-06T09:11:36.314Z,104125.00
2023-02-06T09:14:05.461Z,104126.91
2023-02-06T09:16:33.560Z,104133.22
2023-02-06T09:19:02.345Z,104132.41
2023-02-06T09:21:32.924Z,104142.06
2023-02-06T09:24:03.961Z,104128.84
2023-02-06T09:26:57.083Z,104121.94
2023-02-06T09:29:25.652Z,104120.22
2023-02-06T09:31:52.641Z,104115.03
2023-02-06T09:34:19.673Z,104120.31
2023-02-06T09:36:46.693Z,104115.94
2023-02-06T09:39:13.982Z,104113.38
2023-02-06T09:41:44.610Z,104107.28
2023-02-06T09:44:41.816Z,104115.22
2023-02-06T09:47:32.302Z,104111.84
2023-02-06T09:50:17.299Z,104104.81
2023-02-06T09:52:56.773Z,104104.81
2023-02-06T09:55:41.336Z,104103.09
2023-02-06T09:58:25.944Z,104094.28
2023-02-06T10:00:59.528Z,104096.28
2023-02-06T10:04:00.505Z,104109.47
2023-02-06T10:06:31.928Z,104098.81
2023-02-06T10:09:08.080Z,104109.47
2023-02-06T10:11:48.017Z,104101.53
2023-02-06T10:14:46.894Z,104101.63
2023-02-06T10:17:16.507Z,104109.66
2023-02-06T10:20:21.921Z,104104.38
2023-02-06T10:23:39.205Z,104096.28
2023-02-06T10:26:18.163Z,104097.28
2023-02-06T10:28:56.713Z,104101.00
2023-02-06T10:31:36.674Z,104112.28
2023-02-06T10:34:20.865Z,104111.38
2023-02-06T10:37:00.525Z,104101.72
2023-02-06T10:39:45.470Z,104092.06
2023-02-06T10:42:24.196Z,104098.28
2023-02-06T10:45:21.316Z,104106.19
2023-02-06T10:48:29.381Z,104108.81
2023-02-06T10:51:21.489Z,104102.72
2023-02-06T10:54:06.855Z,104106.28
2023-02-06T10:56:40.732Z,104101.72
2023-02-06T10:59:43.292Z,104108.91
2023-02-06T11:02:10.173Z,104108.09
2023-02-06T11:04:47.434Z,104115.94
2023-02-06T11:07:50.916Z,104117.75
2023-02-06T11:10:21.644Z,104110.84
2023-02-06T11:12:57.018Z,104109.91
2023-02-06T11:15:46.412Z,104105.56
2023-02-06T11:18:19.473Z,104097.63
2023-02-06T11:20:48.298Z,104095.91
2023-02-06T11:23:25.932Z,104087.06
2023-02-06T11:26:18.461Z,104088.88
2023-02-06T11:29:01.862Z,104091.53
2023-02-06T11:31:46.708Z,104092.44
2023-02-06T11:34:42.485Z,104095.91
2023-02-06T11:37:36.966Z,104093.44
2023-02-06T11:40:19.005Z,104082.78
2023-02-06T11:42:48.140Z,104077.72
2023-02-06T11:45:27.786Z,104083.00
2023-02-06T11:47:55.611Z,104083.00
2023-02-06T11:50:28.627Z,104074.16
2023-02-06T11:53:01.044Z,104078.63
2023-02-06T11:55:34.432Z,104091.00
2023-02-06T11:58:13.452Z,104090.19
2023-02-06T12:01:04.227Z,104077.72
2023-02-06T12:03:46.289Z,104074.16
2023-02-06T12:06:36.342Z,104069.88
2023-02-06T12:09:11.420Z,104070.69
2023-02-06T12:11:55.520Z,104074.34
2023-02-06T12:14:40.149Z,104064.50
2023-02-06T12:17:32.942Z,104052.09
2023-02-06T12:20:26.464Z,104053.94
2023-02-06T12:23:31.956Z,104050.41
2023-02-06T12:26:03.816Z,104046.03
2023-02-06T12:28:39.194Z,104043.56
2023-02-06T12:31:47.508Z,104038.28
2023-02-06T12:34:41.874Z,104037.47
2023-02-06T12:37:25.789Z,104028.72
2023-02-06T12:39:53.297Z,104026.91
2023-02-06T12:42:43.909Z,104021.53
2023-02-06T12:45:39.898Z,104018.16
2023-02-06T12:48:17.463Z,104019.88
2023-02-06T12:51:17.553Z,104015.34
2023-02-06T12:53:51.490Z,104014.50
2023-02-06T12:56:27.229Z,104011.88
2023-02-06T12:59:28.375Z,104002.22
2023-02-06T13:02:19.419Z,104001.22
2023-02-06T13:04:47.333Z,103990.66
2023-02-06T13:07:20.147Z,103987.38
2023-02-06T13:09:59.056Z,103982.09
2023-02-06T13:12:31.528Z,103976.06
2023-02-06T13:15:08.030Z,103979.38
2023-02-06T13:17:44.982Z,103968.06
2023-02-06T13:20:15.479Z,103981.19
2023-02-06T13:23:13.879Z,103974.91
2023-02-06T13:25:40.770Z,103974.00
2023-02-06T13:28:22.934Z,103965.41
2023-02-06T13:31:02.882Z,103960.06
2023-02-06T13:34:01.692Z,103958.88
2023-02-06T13:36:42.964Z,103947.50
2023-02-06T13:39:27.805Z,103936.94
2023-02-06T13:41:55.927Z,103945.94
2023-02-06T13:44:32.234Z,103952.13
2023-02-06T13:47:08.110Z,103943.47
2023-02-06T13:50:02.857Z,103946.28
2023-02-06T13:52:53.165Z,103932.34
2023-02-06T13:56:05.977Z,103934.16
2023-02-06T13:59:00.752Z,103933.25
2023-02-06T14:01:31.605Z,103939.53
2023-02-06T14:03:59.684Z,103936.63
2023-02-06T14:06:36.910Z,103924.41
2023-02-06T14:10:02.945Z,103919.22
2023-02-06T14:13:04.881Z,103927.97
2023-02-06T14:15:49.698Z,103930.69
2023-02-06T14:18:39.447Z,103926.31
2023-02-06T14:21:30.842Z,103928.06
2023-02-06T14:24:30.867Z,103930.69
2023-02-06T14:27:39.660Z,103939.44
2023-02-06T14:30:28.157Z,103928.78
2023-02-06T14:33:40.891Z,103927.22
2023-02-06T14:36:42.510Z,103936.97
2023-02-06T14:39:34.185Z,103940.59
2023-02-06T14:42:33.034Z,103940.69
2023-02-06T14:45:41.794Z,103939.84
2023-02-06T14:48:25.605Z,103936.31
2023-02-06T14:50:58.343Z,103938.13
2023-02-06T14:53:40.097Z,103942.50
2023-02-06T14:56:24.846Z,103935.50
2023-02-06T14:58:51.890Z,103936.41
2023-02-06T15:01:18.755Z,103936.47
2023-02-06T15:03:48.559Z,103943.41
2023-02-06T15:06:32.612Z,103930.28
2023-02-06T15:09:00.339Z,103941.69
2023-02-06T15:11:33.129Z,103943.41
2023-02-06T15:14:23.129Z,103948.69
2023-02-06T15:16:51.659Z,103945.22
2023-02-06T15:19:26.933Z,103940.84
2023-02-06T15:22:15.184Z,103949.59
2023-02-06T15:25:12.871Z,103956.63
2023-02-06T15:27:39.890Z,103948.69
2023-02-06T15:30:25.898Z,103950.50
2023-02-06T15:32:55.949Z,103952.16
2023-02-06T15:35:37.075Z,103950.44
2023-02-06T15:38:15.520Z,103958.25
2023-02-06T15:40:54.661Z,103953.81
2023-02-06T15:43:25.497Z,103955.53
2023-02-06T15:45:59.837Z,103962.47
2023-02-06T15:48:33.906Z,103962.56
2023-02-06T15:51:20.246Z,103959.09
2023-02-06T15:53:48.742Z,103946.78
2023-02-06T15:56:40.981Z,103946.97
2023-02-06T15:59:21.181Z,103934.66
2023-02-06T16:01:49.451Z,103946.75
2023-02-06T16:04:31.044Z,103947.97
2023-02-06T16:07:14.029Z,103942.22
2023-02-06T16:10:04.566Z,103945.66
2023-02-06T16:12:43.294Z,103946.22
2023-02-06T16:15:36.316Z,103947.03
2023-02-06T16:18:24.935Z,103944.16
2023-02-06T16:20:52.045Z,103954.66
2023-02-06T16:23:23.869Z,103960.94
2023-02-06T16:26:16.364Z,103952.03
2023-02-06T16:29:03.825Z,103950.22
2023-02-06T16:31:35.036Z,103948.97
2023-02-06T16:34:18.525Z,103957.88
2023-02-06T16:36:45.936Z,103955.25
2023-02-06T16:39:12.918Z,103945.66
2023-02-06T16:41:40.662Z,103945.75
2023-02-06T16:44:13.284Z,103947.03
2023-02-06T16:46:40.761Z,103946.53
2023-02-06T16:49:20.818Z,103945.59
2023-02-06T16:51:52.288Z,103942.06
2023-02-06T16:54:32.027Z,103948.78
2023-02-06T16:57:20.368Z,103954.59
2023-02-06T16:59:47.387Z,103955.38
2023-02-06T17:02:15.346Z,103960.75
2023-02-06T17:04:42.415Z,103962.34
2023-02-06T17:07:19.471Z,103972.41
2023-02-06T17:09:47.866Z,103978.56
2023-02-06T17:12:19.136Z,103975.00
2023-02-06T17:14:47.019Z,103976.59
2023-02-06T17:17:19.688Z,103975.88
2023-02-06T17:19:48.653Z,103979.81
2023-02-06T17:22:16.103Z,103978.00
2023-02-06T17:24:43.843Z,103986.66
2023-02-06T17:27:19.324Z,103988.47
2023-02-06T17:29:47.702Z,103980.50
2023-02-06T17:32:16.311Z,103973.66
2023-02-06T17:34:43.664Z,103990.06
2023-02-06T17:37:20.626Z,103977.75
2023-02-06T17:39:52.272Z,103986.41
2023-02-06T17:42:22.038Z,103982.63
2023-02-06T17:44:49.772Z,103986.97
2023-02-06T17:47:16.986Z,103987.34
2023-02-06T17:49:44.121Z,103991.16
2023-02-06T17:52:11.059Z,103984.91
2023-02-06T17:54:38.480Z,103977.69
2023-02-06T17:57:05.500Z,103982.41
2023-02-06T17:59:32.456Z,103986.56
2023-02-06T18:01:59.554Z,103987.13
2023-02-06T18:04:26.940Z,103990.16
2023-02-06T18:06:54.052Z,103982.44
2023-02-06T18:09:21.012Z,103974.47
2023-02-06T18:11:48.075Z,103982.72
2023-02-06T18:14:15.693Z,103979.06
2023-02-06T18:16:42.925Z,103978.94
2023-02-06T18:19:10.530Z,103965.19
2023-02-06T18:21:37.587Z,103967.41
2023-02-06T18:24:05.678Z,103968.94
2023-02-06T18:26:32.954Z,103971.50
2023-02-06T18:29:04.572Z,103958.06
2023-02-06T18:31:35.702Z,103955.75
2023-02-06T18:34:07.942Z,103958.75
2023-02-06T18:36:36.849Z,103944.75
2023-02-06T18:39:05.913Z,103949.72
2023-02-06T18:41:51.690Z,103948.38
2023-02-06T18:44:18.767Z,103937.44
2023-02-06T18:46:45.987Z,103952.34
2023-02-06T18:49:12.972Z,103940.56
2023-02-06T18:51:40.515Z,103940.88
2023-02-06T18:54:07.968Z,103944.44
2023-02-06T18:56:35.306Z,103947.25
2023-02-06T18:59:03.972Z,103942.41
2023-02-06T19:01:32.032Z,103939.75
2023-02-06T19:03:59.503Z,103935.94
2023-02-06T19:06:35.307Z,103941.56
2023-02-06T19:09:07.164Z,103933.97
2023-02-06T19:11:35.899Z,103938.72
2023-02-06T19:14:05.124Z,103935.34
2023-02-06T19:16:32.850Z,103928.28
2023-02-06T19:18:59.994Z,103921.09
2023-02-06T19:21:27.654Z,103916.81
2023-02-06T19:23:59.779Z,103917.72
2023-02-06T19:26:28.157Z,103922.69
2023-02-06T19:28:57.256Z,103920.19
2023-02-06T19:31:24.885Z,103926.63
2023-02-06T19:33:55.373Z,103918.50
2023-02-06T19:36:24.749Z,103921.50
2023-02-06T19:38:57.004Z,103932.50
2023-02-06T19:41:26.726Z,103921.66
2023-02-06T19:43:55.534Z,103925.94
2023-02-06T19:46:27.031Z,103920.19
2023-02-06T19:48:55.958Z,103915.88
2023-02-06T19:51:30.633Z,103912.75
2023-02-06T19:53:59.278Z,103916.94
2023-02-06T19:56:34.499Z,103911.81
2023-02-06T19:59:18.302Z,103917.03
2023-02-06T20:01:55.014Z,103911.41
2023-02-06T20:04:26.901Z,103915.72
2023-02-06T20:06:55.842Z,103923.00
2023-02-06T20:09:24.037Z,103925.97
2023-02-06T20:11:51.451Z,103917.75
2023-02-06T20:14:22.724Z,103929.16
2023-02-06T20:16:49.838Z,103924.19
2023-02-06T20:19:24.809Z,103927.31
2023-02-06T20:21:56.006Z,103926.72
2023-02-06T20:24:27.038Z,103921.13
2023-02-06T20:26:58.978Z,103927.75
2023-02-06T20:29:30.373Z,103923.81
2023-02-06T20:31:58.296Z,103924.84
2023-02-06T20:34:27.198Z,103924.13
2023-02-06T20:36:55.601Z,103924.75
2023-02-06T20:39:23.327Z,103922.25
2023-02-06T20:41:50.953Z,103923.78
2023-02-06T20:44:19.905Z,103920.50
2023-02-06T20:46:47.498Z,103925.41
2023-02-06T20:49:18.356Z,103918.88
2023-02-06T20:51:45.560Z,103915.06
2023-02-06T20:54:12.880Z,103911.13
2023-02-06T20:56:41.054Z,103921.13
2023-02-06T20:59:11.822Z,103916.41
2023-02-06T21:01:40.006Z,103914.59
2023-02-06T21:04:09.968Z,103915.19
2023-02-06T21:06:38.718Z,103909.56
2023-02-06T21:09:07.468Z,103911.88
2023-02-06T21:11:39.400Z,103908.59
2023-02-06T21:14:07.145Z,103920.81
2023-02-06T21:16:35.841Z,103911.44
2023-02-06T21:19:05.213Z,103912.13
2023-02-06T21:21:32.801Z,103910.34
2023-02-06T21:24:00.052Z,103915.84
2023-02-06T21:26:28.442Z,103923.50
2023-02-06T21:28:58.334Z,103925.34
2023-02-06T21:31:36.015Z,103914.81
2023-02-06T21:34:22.194Z,103921.25
2023-02-06T21:36:49.537Z,103921.13
2023-02-06T21:39:21.984Z,103911.34
2023-02-06T21:41:53.846Z,103913.50
2023-02-06T21:44:23.976Z,103916.25
2023-02-06T21:46:51.506Z,103910.78
2023-02-06T21:49:18.912Z,103921.78
2023-02-06T21:51:46.036Z,103912.41
2023-02-06T21:54:13.070Z,103913.81
2023-02-06T21:56:40.156Z,103924.19
2023-02-06T21:59:08.029Z,103920.56
2023-02-06T22:01:36.116Z,103917.84
2023-02-06T22:04:03.947Z,103918.03
2023-02-06T22:06:32.069Z,103924.31
2023-02-06T22:09:05.232Z,103920.03
2023-02-06T22:11:32.408Z,103925.66
2023-02-06T22:14:07.230Z,103915.13
2023-02-06T22:16:34.806Z,103922.63
2023-02-06T22:19:02.054Z,103917.28
2023-02-06T22:21:32.078Z,103918.97
2023-02-06T22:24:02.605Z,103919.09
2023-02-06T22:26:30.377Z,103923.06
2023-02-06T22:28:59.566Z,103916.97
2023-02-06T22:31:30.235Z,103918.81
2023-02-06T22:33:59.443Z,103918.53
2023-02-06T22:36:30.220Z,103920.97
2023-02-06T22:39:04.637Z,103927.25
2023-02-06T22:41:31.665Z,103917.94
2023-02-06T22:43:58.783Z,103911.38
2023-02-06T22:46:33.936Z,103916.75
2023-02-06T22:49:01.717Z,103913.38
2023-02-06T22:51:29.155Z,103899.97
2023-02-06T22:53:56.237Z,103899.16
2023-02-06T22:56:31.442Z,103902.84
2023-02-06T22:59:10.469Z,103907.91
2023-02-06T23:01:50.448Z,103905.78
2023-02-06T23:04:21.530Z,103912.19
2023-02-06T23:06:49.565Z,103906.22
2023-02-06T23:09:33.269Z,103898.41
2023-02-06T23:12:01.037Z,103904.22
2023-02-06T23:14:30.878Z,103894.75
2023-02-06T23:17:00.248Z,103896.91
2023-02-06T23:19:27.705Z,103891.44
2023-02-06T23:21:54.991Z,103894.03
2023-02-06T23:24:22.031Z,103885.31
2023-02-06T23:26:51.317Z,103885.75
2023-02-06T23:29:19.529Z,103892.63
2023-02-06T23:31:48.302Z,103899.81
2023-02-06T23:34:17.902Z,103905.31
2023-02-06T23:36:46.099Z,103903.94
2023-02-06T23:39:13.730Z,103905.47
2023-02-06T23:41:41.523Z,103897.88
2023-02-06T23:44:10.644Z,103906.09
2023-02-06T23:46:39.726Z,103909.78
2023-02-06T23:49:07.307Z,103900.31
2023-02-06T23:51:35.848Z,103911.91
2023-02-06T23:54:03.520Z,103917.72
2023-02-06T23:56:32.414Z,103917.72
2023-02-06T23:59:01.681Z,103918.34
